sensor_id;sensor_type;location;lat;lon;timestamp;pressure;altitude;pressure_sealevel;temperature;humidity
74045;BME280;62389;51.412;5.436;2023-07-30T00:00:30;100864.03;;;16.04;80.87
74045;BME280;62389;51.412;5.436;2023-07-30T00:02:55;100860.44;;;16.05;81.71
74045;BME280;62389;51.412;5.436;2023-07-30T00:05:21;100871.66;;;16.09;80.47
74045;BME280;62389;51.412;5.436;2023-07-30T00:07:46;100867.63;;;16.03;80.42
74045;BME280;62389;51.412;5.436;2023-07-30T00:10:12;100873.03;;;16.01;80.02
74045;BME280;62389;51.412;5.436;2023-07-30T00:12:37;100864.94;;;15.90;81.01
74045;BME280;62389;51.412;5.436;2023-07-30T00:15:03;100857.25;;;15.87;80.92
74045;BME280;62389;51.412;5.436;2023-07-30T00:17:28;100859.97;;;15.86;81.20
74045;BME280;62389;51.412;5.436;2023-07-30T00:19:53;100852.16;;;15.84;81.24
74045;BME280;62389;51.412;5.436;2023-07-30T00:22:19;100854.91;;;15.83;82.50
74045;BME280;62389;51.412;5.436;2023-07-30T00:24:44;100858.03;;;15.75;80.77
74045;BME280;62389;51.412;5.436;2023-07-30T00:27:09;100860.34;;;15.67;81.54
74045;BME280;62389;51.412;5.436;2023-07-30T00:29:35;100859.09;;;15.58;83.39
74045;BME280;62389;51.412;5.436;2023-07-30T00:32:00;100853.47;;;15.50;82.01
74045;BME280;62389;51.412;5.436;2023-07-30T00:34:25;100864.84;;;15.50;83.42
74045;BME280;62389;51.412;5.436;2023-07-30T00:36:51;100865.69;;;15.51;83.30
74045;BME280;62389;51.412;5.436;2023-07-30T00:39:16;100863.16;;;15.49;83.13
74045;BME280;62389;51.412;5.436;2023-07-30T00:41:41;100866.84;;;15.47;84.65
74045;BME280;62389;51.412;5.436;2023-07-30T00:44:07;100858.09;;;15.46;83.13
74045;BME280;62389;51.412;5.436;2023-07-30T00:46:32;100860.06;;;15.43;84.86
74045;BME280;62389;51.412;5.436;2023-07-30T00:48:58;100866.03;;;15.32;83.96
74045;BME280;62389;51.412;5.436;2023-07-30T00:51:24;100877.81;;;15.26;84.20
74045;BME280;62389;51.412;5.436;2023-07-30T00:53:49;100872.25;;;15.17;83.57
74045;BME280;62389;51.412;5.436;2023-07-30T00:56:15;100873.28;;;15.14;84.00
74045;BME280;62389;51.412;5.436;2023-07-30T00:58:42;100874.13;;;15.15;84.94
74045;BME280;62389;51.412;5.436;2023-07-30T01:01:08;100876.13;;;15.11;85.00
74045;BME280;62389;51.412;5.436;2023-07-30T01:03:34;100875.19;;;15.12;85.48
74045;BME280;62389;51.412;5.436;2023-07-30T01:06:00;100881.84;;;15.18;85.77
74045;BME280;62389;51.412;5.436;2023-07-30T01:08:25;100881.97;;;15.16;85.35
74045;BME280;62389;51.412;5.436;2023-07-30T01:10:51;100878.38;;;15.17;85.03
74045;BME280;62389;51.412;5.436;2023-07-30T01:13:17;100884.28;;;15.21;85.20
74045;BME280;62389;51.412;5.436;2023-07-30T01:15:43;100884.94;;;15.24;85.34
74045;BME280;62389;51.412;5.436;2023-07-30T01:18:09;100892.56;;;15.29;84.65
74045;BME280;62389;51.412;5.436;2023-07-30T01:20:34;100897.66;;;15.32;85.09
74045;BME280;62389;51.412;5.436;2023-07-30T01:23:00;100894.47;;;15.27;84.94
74045;BME280;62389;51.412;5.436;2023-07-30T01:25:28;100899.06;;;15.23;85.14
74045;BME280;62389;51.412;5.436;2023-07-30T01:27:55;100889.38;;;15.24;87.15
74045;BME280;62389;51.412;5.436;2023-07-30T01:30:30;100897.44;;;15.21;84.86
74045;BME280;62389;51.412;5.436;2023-07-30T01:32:56;100901.03;;;15.20;85.32
74045;BME280;62389;51.412;5.436;2023-07-30T01:35:26;100908.94;;;15.20;85.56
74045;BME280;62389;51.412;5.436;2023-07-30T01:37:52;100917.06;;;15.17;85.61
74045;BME280;62389;51.412;5.436;2023-07-30T01:40:19;100911.22;;;15.12;85.00
74045;BME280;62389;51.412;5.436;2023-07-30T01:42:44;100905.38;;;15.07;85.85
74045;BME280;62389;51.412;5.436;2023-07-30T01:45:10;100908.38;;;15.00;85.87
74045;BME280;62389;51.412;5.436;2023-07-30T01:47:35;100904.16;;;14.98;86.72
74045;BME280;62389;51.412;5.436;2023-07-30T01:50:01;100911.22;;;14.97;87.07
74045;BME280;62389;51.412;5.436;2023-07-30T01:52:26;100907.63;;;14.98;86.88
74045;BME280;62389;51.412;5.436;2023-07-30T01:54:51;100912.78;;;15.00;87.10
74045;BME280;62389;51.412;5.436;2023-07-30T01:57:17;100916.19;;;15.02;86.86
74045;BME280;62389;51.412;5.436;2023-07-30T01:59:42;100914.19;;;15.06;87.96
74045;BME280;62389;51.412;5.436;2023-07-30T02:02:08;100916.38;;;14.99;87.67
74045;BME280;62389;51.412;5.436;2023-07-30T02:04:33;100905.84;;;14.99;87.30
74045;BME280;62389;51.412;5.436;2023-07-30T02:06:59;100917.22;;;14.99;87.51
74045;BME280;62389;51.412;5.436;2023-07-30T02:09:24;100915.53;;;14.98;87.48
74045;BME280;62389;51.412;5.436;2023-07-30T02:11:50;100915.63;;;14.97;87.56
74045;BME280;62389;51.412;5.436;2023-07-30T02:14:15;100912.16;;;14.96;87.95
74045;BME280;62389;51.412;5.436;2023-07-30T02:16:41;100913.84;;;14.97;88.18
74045;BME280;62389;51.412;5.436;2023-07-30T02:19:07;100901.06;;;14.91;88.00
74045;BME280;62389;51.412;5.436;2023-07-30T02:21:33;100903.69;;;14.91;89.07
74045;BME280;62389;51.412;5.436;2023-07-30T02:24:01;100895.84;;;14.90;88.68
74045;BME280;62389;51.412;5.436;2023-07-30T02:26:26;100900.19;;;14.91;89.22
74045;BME280;62389;51.412;5.436;2023-07-30T02:28:52;100901.78;;;14.93;88.97
74045;BME280;62389;51.412;5.436;2023-07-30T02:31:17;100899.91;;;14.95;88.76
74045;BME280;62389;51.412;5.436;2023-07-30T02:33:42;100903.69;;;14.91;88.68
74045;BME280;62389;51.412;5.436;2023-07-30T02:36:08;100899.44;;;14.89;89.02
74045;BME280;62389;51.412;5.436;2023-07-30T02:38:33;100905.06;;;14.83;89.68
74045;BME280;62389;51.412;5.436;2023-07-30T02:40:58;100896.41;;;14.81;89.75
74045;BME280;62389;51.412;5.436;2023-07-30T02:43:24;100897.19;;;14.83;89.43
74045;BME280;62389;51.412;5.436;2023-07-30T02:45:49;100898.59;;;14.88;89.07
74045;BME280;62389;51.412;5.436;2023-07-30T02:48:14;100900.28;;;14.89;90.05
74045;BME280;62389;51.412;5.436;2023-07-30T02:50:40;100900.09;;;14.92;90.08
74045;BME280;62389;51.412;5.436;2023-07-30T02:53:05;100907.44;;;14.87;90.75
74045;BME280;62389;51.412;5.436;2023-07-30T02:55:31;100909.50;;;14.82;90.12
74045;BME280;62389;51.412;5.436;2023-07-30T02:57:56;100920.22;;;14.79;90.82
74045;BME280;62389;51.412;5.436;2023-07-30T03:00:21;100920.22;;;14.79;90.79
74045;BME280;62389;51.412;5.436;2023-07-30T03:02:47;100915.78;;;14.80;90.74
74045;BME280;62389;51.412;5.436;2023-07-30T03:05:12;100922.09;;;14.77;91.48
74045;BME280;62389;51.412;5.436;2023-07-30T03:07:37;100921.53;;;14.72;91.29
74045;BME280;62389;51.412;5.436;2023-07-30T03:10:03;100917.94;;;14.73;92.10
74045;BME280;62389;51.412;5.436;2023-07-30T03:12:28;100919.47;;;14.77;91.83
74045;BME280;62389;51.412;5.436;2023-07-30T03:14:54;100913.09;;;14.81;91.69
74045;BME280;62389;51.412;5.436;2023-07-30T03:17:19;100921.72;;;14.83;91.46
74045;BME280;62389;51.412;5.436;2023-07-30T03:19:46;100924.34;;;14.83;91.76
74045;BME280;62389;51.412;5.436;2023-07-30T03:22:11;100921.81;;;14.82;91.68
74045;BME280;62389;51.412;5.436;2023-07-30T03:24:37;100916.72;;;14.79;92.06
74045;BME280;62389;51.412;5.436;2023-07-30T03:27:02;100919.38;;;14.79;92.19
74045;BME280;62389;51.412;5.436;2023-07-30T03:29:28;100919.94;;;14.84;93.05
74045;BME280;62389;51.412;5.436;2023-07-30T03:31:53;100910.06;;;14.87;92.15
74045;BME280;62389;51.412;5.436;2023-07-30T03:34:19;100916.94;;;14.90;92.36
74045;BME280;62389;51.412;5.436;2023-07-30T03:36:44;100915.13;;;14.90;92.14
74045;BME280;62389;51.412;5.436;2023-07-30T03:39:09;100928.50;;;14.87;91.87
74045;BME280;62389;51.412;5.436;2023-07-30T03:41:35;100923.63;;;14.81;91.83
74045;BME280;62389;51.412;5.436;2023-07-30T03:44:01;100927.09;;;14.82;91.93
74045;BME280;62389;51.412;5.436;2023-07-30T03:46:27;100925.09;;;14.85;92.25
74045;BME280;62389;51.412;5.436;2023-07-30T03:48:52;100926.81;;;14.86;92.95
74045;BME280;62389;51.412;5.436;2023-07-30T03:51:17;100927.72;;;14.85;92.45
74045;BME280;62389;51.412;5.436;2023-07-30T03:53:43;100927.66;;;14.87;92.96
74045;BME280;62389;51.412;5.436;2023-07-30T03:56:08;100933.56;;;14.90;92.60
74045;BME280;62389;51.412;5.436;2023-07-30T03:58:33;100933.50;;;14.92;92.34
74045;BME280;62389;51.412;5.436;2023-07-30T04:00:59;100931.03;;;14.89;92.70
74045;BME280;62389;51.412;5.436;2023-07-30T04:03:24;100946.16;;;14.85;92.86
74045;BME280;62389;51.412;5.436;2023-07-30T04:05:50;100938.25;;;14.85;93.02
74045;BME280;62389;51.412;5.436;2023-07-30T04:08:16;100942.50;;;14.88;93.30
74045;BME280;62389;51.412;5.436;2023-07-30T04:10:41;100944.94;;;14.91;93.17
74045;BME280;62389;51.412;5.436;2023-07-30T04:13:07;100936.13;;;14.92;93.27
74045;BME280;62389;51.412;5.436;2023-07-30T04:15:33;100931.72;;;14.92;92.92
74045;BME280;62389;51.412;5.436;2023-07-30T04:17:58;100942.97;;;14.94;93.06
74045;BME280;62389;51.412;5.436;2023-07-30T04:20:24;100929.91;;;14.93;93.08
74045;BME280;62389;51.412;5.436;2023-07-30T04:22:49;100937.81;;;14.93;93.62
74045;BME280;62389;51.412;5.436;2023-07-30T04:25:15;100935.84;;;14.96;93.84
74045;BME280;62389;51.412;5.436;2023-07-30T04:27:40;100941.03;;;14.98;93.07
74045;BME280;62389;51.412;5.436;2023-07-30T04:30:06;100938.28;;;14.99;93.76
74045;BME280;62389;51.412;5.436;2023-07-30T04:32:31;100934.72;;;15.00;93.52
74045;BME280;62389;51.412;5.436;2023-07-30T04:34:57;100939.91;;;15.02;93.78
74045;BME280;62389;51.412;5.436;2023-07-30T04:37:22;100941.59;;;15.03;94.02
74045;BME280;62389;51.412;5.436;2023-07-30T04:39:48;100931.34;;;14.98;94.02
74045;BME280;62389;51.412;5.436;2023-07-30T04:42:14;100934.06;;;14.97;94.36
74045;BME280;62389;51.412;5.436;2023-07-30T04:44:40;100931.34;;;14.98;94.60
74045;BME280;62389;51.412;5.436;2023-07-30T04:47:06;100931.16;;;15.01;94.63
74045;BME280;62389;51.412;5.436;2023-07-30T04:49:32;100941.69;;;15.01;94.33
74045;BME280;62389;51.412;5.436;2023-07-30T04:51:57;100937.91;;;15.06;94.13
74045;BME280;62389;51.412;5.436;2023-07-30T04:54:23;100943.00;;;15.09;94.09
74045;BME280;62389;51.412;5.436;2023-07-30T04:56:48;100932.28;;;15.12;94.08
74045;BME280;62389;51.412;5.436;2023-07-30T04:59:14;100938.19;;;15.15;94.10
74045;BME280;62389;51.412;5.436;2023-07-30T05:01:39;100934.53;;;15.18;94.32
74045;BME280;62389;51.412;5.436;2023-07-30T05:04:04;100947.72;;;15.18;94.14
74045;BME280;62389;51.412;5.436;2023-07-30T05:06:30;100940.75;;;15.17;94.15
74045;BME280;62389;51.412;5.436;2023-07-30T05:08:55;100954.84;;;15.16;94.83
74045;BME280;62389;51.412;5.436;2023-07-30T05:11:20;100960.31;;;15.13;95.07
74045;BME280;62389;51.412;5.436;2023-07-30T05:13:46;100960.22;;;15.14;94.67
74045;BME280;62389;51.412;5.436;2023-07-30T05:16:11;100960.13;;;15.16;94.54
74045;BME280;62389;51.412;5.436;2023-07-30T05:18:36;100961.91;;;15.15;94.99
74045;BME280;62389;51.412;5.436;2023-07-30T05:21:02;100970.66;;;15.16;94.99
74045;BME280;62389;51.412;5.436;2023-07-30T05:23:27;100970.88;;;15.13;95.45
74045;BME280;62389;51.412;5.436;2023-07-30T05:25:52;100967.28;;;15.14;95.85
74045;BME280;62389;51.412;5.436;2023-07-30T05:28:18;100965.31;;;15.17;95.52
74045;BME280;62389;51.412;5.436;2023-07-30T05:30:43;100969.63;;;15.18;95.50
74045;BME280;62389;51.412;5.436;2023-07-30T05:33:09;100969.53;;;15.20;95.41
74045;BME280;62389;51.412;5.436;2023-07-30T05:35:34;100968.41;;;15.24;95.65
74045;BME280;62389;51.412;5.436;2023-07-30T05:38:00;100957.88;;;15.24;95.56
74045;BME280;62389;51.412;5.436;2023-07-30T05:40:25;100961.47;;;15.23;95.44
74045;BME280;62389;51.412;5.436;2023-07-30T05:42:51;100964.94;;;15.23;95.80
74045;BME280;62389;51.412;5.436;2023-07-30T05:45:16;100958.53;;;15.27;96.00
74045;BME280;62389;51.412;5.436;2023-07-30T05:47:41;100953.00;;;15.32;95.42
74045;BME280;62389;51.412;5.436;2023-07-30T05:50:07;100960.69;;;15.35;95.16
74045;BME280;62389;51.412;5.436;2023-07-30T05:52:33;100963.16;;;15.38;95.28
74045;BME280;62389;51.412;5.436;2023-07-30T05:54:59;100963.88;;;15.40;95.41
74045;BME280;62389;51.412;5.436;2023-07-30T05:57:24;100965.59;;;15.41;95.04
74045;BME280;62389;51.412;5.436;2023-07-30T05:59:50;100960.22;;;15.43;95.01
74045;BME280;62389;51.412;5.436;2023-07-30T06:02:16;100966.25;;;15.45;95.85
74045;BME280;62389;51.412;5.436;2023-07-30T06:04:42;100969.66;;;15.47;95.70
74045;BME280;62389;51.412;5.436;2023-07-30T06:07:07;100970.28;;;15.50;95.08
74045;BME280;62389;51.412;5.436;2023-07-30T06:09:33;100964.66;;;15.57;95.39
74045;BME280;62389;51.412;5.436;2023-07-30T06:11:59;100965.50;;;15.57;94.68
74045;BME280;62389;51.412;5.436;2023-07-30T06:14:25;100975.28;;;15.55;95.17
74045;BME280;62389;51.412;5.436;2023-07-30T06:16:51;100969.06;;;15.56;95.17
74045;BME280;62389;51.412;5.436;2023-07-30T06:19:17;100969.94;;;15.57;95.28
74045;BME280;62389;51.412;5.436;2023-07-30T06:21:42;100972.34;;;15.60;95.26
74045;BME280;62389;51.412;5.436;2023-07-30T06:24:08;100971.25;;;15.64;95.10
74045;BME280;62389;51.412;5.436;2023-07-30T06:26:33;100976.25;;;15.68;95.01
74045;BME280;62389;51.412;5.436;2023-07-30T06:28:58;100973.44;;;15.71;94.41
74045;BME280;62389;51.412;5.436;2023-07-30T06:31:24;100976.91;;;15.72;94.44
74045;BME280;62389;51.412;5.436;2023-07-30T06:33:49;100975.84;;;15.74;94.56
74045;BME280;62389;51.412;5.436;2023-07-30T06:36:15;100981.03;;;15.76;94.04
74045;BME280;62389;51.412;5.436;2023-07-30T06:38:40;100975.97;;;15.73;94.05
74045;BME280;62389;51.412;5.436;2023-07-30T06:41:05;100984.72;;;15.73;93.78
74045;BME280;62389;51.412;5.436;2023-07-30T06:43:31;100984.59;;;15.75;94.60
74045;BME280;62389;51.412;5.436;2023-07-30T06:45:56;100983.75;;;15.74;93.67
74045;BME280;62389;51.412;5.436;2023-07-30T06:48:22;100985.44;;;15.75;94.33
74045;BME280;62389;51.412;5.436;2023-07-30T06:50:47;100985.94;;;15.82;94.86
74045;BME280;62389;51.412;5.436;2023-07-30T06:53:12;100989.97;;;15.88;94.44
74045;BME280;62389;51.412;5.436;2023-07-30T06:55:38;100987.78;;;15.94;94.71
74045;BME280;62389;51.412;5.436;2023-07-30T06:58:03;100977.78;;;15.99;93.89
74045;BME280;62389;51.412;5.436;2023-07-30T07:00:29;100975.59;;;16.06;93.51
74045;BME280;62389;51.412;5.436;2023-07-30T07:02:54;100983.97;;;16.13;93.46
74045;BME280;62389;51.412;5.436;2023-07-30T07:05:19;100984.31;;;16.21;93.33
74045;BME280;62389;51.412;5.436;2023-07-30T07:07:45;101001.53;;;16.26;92.87
74045;BME280;62389;51.412;5.436;2023-07-30T07:10:10;100999.00;;;16.25;91.79
74045;BME280;62389;51.412;5.436;2023-07-30T07:12:37;100995.38;;;16.13;91.53
74045;BME280;62389;51.412;5.436;2023-07-30T07:15:03;100995.47;;;16.12;92.23
74045;BME280;62389;51.412;5.436;2023-07-30T07:17:29;101008.13;;;16.07;91.70
74045;BME280;62389;51.412;5.436;2023-07-30T07:19:54;100996.50;;;16.09;93.06
74045;BME280;62389;51.412;5.436;2023-07-30T07:22:20;100992.28;;;16.07;92.74
74045;BME280;62389;51.412;5.436;2023-07-30T07:24:45;100987.56;;;16.12;92.39
74045;BME280;62389;51.412;5.436;2023-07-30T07:27:11;100997.50;;;16.21;92.78
74045;BME280;62389;51.412;5.436;2023-07-30T07:29:37;101002.28;;;16.28;92.08
74045;BME280;62389;51.412;5.436;2023-07-30T07:32:02;101003.50;;;16.37;92.55
74045;BME280;62389;51.412;5.436;2023-07-30T07:34:28;100989.47;;;16.49;92.37
74045;BME280;62389;51.412;5.436;2023-07-30T07:36:53;100997.84;;;16.56;91.17
74045;BME280;62389;51.412;5.436;2023-07-30T07:39:19;101012.53;;;16.60;90.79
74045;BME280;62389;51.412;5.436;2023-07-30T07:41:44;101005.44;;;16.61;89.98
74045;BME280;62389;51.412;5.436;2023-07-30T07:44:10;101009.47;;;16.66;89.72
74045;BME280;62389;51.412;5.436;2023-07-30T07:46:35;101004.38;;;16.77;89.74
74045;BME280;62389;51.412;5.436;2023-07-30T07:49:00;101001.75;;;16.90;89.21
74045;BME280;62389;51.412;5.436;2023-07-30T07:51:26;101016.97;;;16.99;89.42
74045;BME280;62389;51.412;5.436;2023-07-30T07:53:51;101015.72;;;16.92;85.78
74045;BME280;62389;51.412;5.436;2023-07-30T07:56:17;101019.69;;;16.85;87.05
74045;BME280;62389;51.412;5.436;2023-07-30T07:58:42;101008.28;;;16.85;86.90
74045;BME280;62389;51.412;5.436;2023-07-30T08:01:08;101008.94;;;16.88;87.90
74045;BME280;62389;51.412;5.436;2023-07-30T08:03:33;100998.91;;;16.93;86.50
74045;BME280;62389;51.412;5.436;2023-07-30T08:05:59;100997.75;;;16.97;85.99
74045;BME280;62389;51.412;5.436;2023-07-30T08:08:25;100998.41;;;17.14;86.06
74045;BME280;62389;51.412;5.436;2023-07-30T08:10:51;101004.44;;;17.28;85.16
74045;BME280;62389;51.412;5.436;2023-07-30T08:13:16;100999.22;;;17.40;84.89
74045;BME280;62389;51.412;5.436;2023-07-30T08:15:42;101003.78;;;17.50;85.29
74045;BME280;62389;51.412;5.436;2023-07-30T08:18:07;101022.69;;;17.57;84.25
74045;BME280;62389;51.412;5.436;2023-07-30T08:20:32;101022.06;;;17.53;83.33
74045;BME280;62389;51.412;5.436;2023-07-30T08:22:58;101025.88;;;17.49;83.83
74045;BME280;62389;51.412;5.436;2023-07-30T08:25:23;101031.38;;;17.46;84.83
74045;BME280;62389;51.412;5.436;2023-07-30T08:27:49;101030.97;;;17.40;84.49
74045;BME280;62389;51.412;5.436;2023-07-30T08:30:14;101024.19;;;17.23;82.79
74045;BME280;62389;51.412;5.436;2023-07-30T08:32:39;101018.38;;;17.18;83.80
74045;BME280;62389;51.412;5.436;2023-07-30T08:35:06;101018.28;;;17.19;84.29
74045;BME280;62389;51.412;5.436;2023-07-30T08:37:32;101021.25;;;17.27;84.11
74045;BME280;62389;51.412;5.436;2023-07-30T08:39:57;101015.09;;;17.40;83.14
74045;BME280;62389;51.412;5.436;2023-07-30T08:42:23;101019.19;;;17.56;83.20
74045;BME280;62389;51.412;5.436;2023-07-30T08:44:49;101017.50;;;17.68;81.24
74045;BME280;62389;51.412;5.436;2023-07-30T08:47:14;101022.88;;;17.67;80.90
74045;BME280;62389;51.412;5.436;2023-07-30T08:49:40;101025.78;;;17.64;80.44
74045;BME280;62389;51.412;5.436;2023-07-30T08:52:09;101014.88;;;17.68;81.83
74045;BME280;62389;51.412;5.436;2023-07-30T08:54:36;101010.41;;;17.81;80.60
74045;BME280;62389;51.412;5.436;2023-07-30T08:57:02;101011.88;;;17.98;79.44
74045;BME280;62389;51.412;5.436;2023-07-30T08:59:33;101009.94;;;18.00;79.89
74045;BME280;62389;51.412;5.436;2023-07-30T09:02:00;101014.06;;;18.04;78.43
74045;BME280;62389;51.412;5.436;2023-07-30T09:04:28;100997.75;;;18.10;79.42
74045;BME280;62389;51.412;5.436;2023-07-30T09:06:55;100998.25;;;18.16;78.41
74045;BME280;62389;51.412;5.436;2023-07-30T09:09:21;101013.06;;;18.42;80.09
74045;BME280;62389;51.412;5.436;2023-07-30T09:11:52;101004.84;;;18.58;78.19
74045;BME280;62389;51.412;5.436;2023-07-30T09:14:20;101001.72;;;18.64;76.60
74045;BME280;62389;51.412;5.436;2023-07-30T09:16:46;101010.31;;;18.68;77.17
74045;BME280;62389;51.412;5.436;2023-07-30T09:19:16;100996.56;;;18.62;75.95
74045;BME280;62389;51.412;5.436;2023-07-30T09:21:42;101003.13;;;18.57;75.68
74045;BME280;62389;51.412;5.436;2023-07-30T09:24:08;101010.47;;;18.53;75.15
74045;BME280;62389;51.412;5.436;2023-07-30T09:26:43;101012.38;;;19.22;72.75
74045;BME280;62389;51.412;5.436;2023-07-30T09:29:10;101022.06;;;19.45;73.17
74045;BME280;62389;51.412;5.436;2023-07-30T09:31:53;101030.72;;;19.47;70.20
74045;BME280;62389;51.412;5.436;2023-07-30T09:34:23;101020.03;;;19.94;72.04
74045;BME280;62389;51.412;5.436;2023-07-30T09:36:53;101019.25;;;20.68;67.83
74045;BME280;62389;51.412;5.436;2023-07-30T09:39:28;101015.84;;;21.50;67.95
74045;BME280;62389;51.412;5.436;2023-07-30T09:42:00;101006.44;;;22.65;61.69
74045;BME280;62389;51.412;5.436;2023-07-30T09:44:25;101010.22;;;22.82;60.38
74045;BME280;62389;51.412;5.436;2023-07-30T09:46:51;101014.44;;;22.56;60.75
74045;BME280;62389;51.412;5.436;2023-07-30T09:49:17;101022.53;;;22.15;60.20
74045;BME280;62389;51.412;5.436;2023-07-30T09:51:43;101015.06;;;21.59;63.18
74045;BME280;62389;51.412;5.436;2023-07-30T09:54:10;101026.41;;;21.31;64.12
74045;BME280;62389;51.412;5.436;2023-07-30T09:56:37;101025.28;;;20.91;64.92
74045;BME280;62389;51.412;5.436;2023-07-30T09:59:04;101020.25;;;20.45;66.59
74045;BME280;62389;51.412;5.436;2023-07-30T10:01:30;101023.28;;;20.08;68.31
74045;BME280;62389;51.412;5.436;2023-07-30T10:03:57;101020.88;;;19.83;68.38
74045;BME280;62389;51.412;5.436;2023-07-30T10:06:25;101018.94;;;19.85;68.17
74045;BME280;62389;51.412;5.436;2023-07-30T10:08:53;101033.16;;;20.06;66.83
74045;BME280;62389;51.412;5.436;2023-07-30T10:11:22;101034.84;;;20.18;65.10
74045;BME280;62389;51.412;5.436;2023-07-30T10:13:48;101037.97;;;20.24;65.49
74045;BME280;62389;51.412;5.436;2023-07-30T10:16:14;101045.44;;;20.30;64.15
74045;BME280;62389;51.412;5.436;2023-07-30T10:18:41;101030.84;;;20.24;66.21
74045;BME280;62389;51.412;5.436;2023-07-30T10:21:08;101032.66;;;20.12;65.67
74045;BME280;62389;51.412;5.436;2023-07-30T10:23:46;101029.06;;;20.13;66.87
74045;BME280;62389;51.412;5.436;2023-07-30T10:26:15;101027.66;;;20.30;66.31
74045;BME280;62389;51.412;5.436;2023-07-30T10:28:40;101038.44;;;20.17;64.06
74045;BME280;62389;51.412;5.436;2023-07-30T10:31:08;101043.03;;;20.15;63.01
74045;BME280;62389;51.412;5.436;2023-07-30T10:33:52;101039.28;;;20.29;66.13
74045;BME280;62389;51.412;5.436;2023-07-30T10:36:31;101034.75;;;20.41;65.20
74045;BME280;62389;51.412;5.436;2023-07-30T10:38:56;101049.16;;;20.50;63.29
74045;BME280;62389;51.412;5.436;2023-07-30T10:41:22;101051.66;;;20.51;62.91
74045;BME280;62389;51.412;5.436;2023-07-30T10:43:49;101046.81;;;20.56;64.12
74045;BME280;62389;51.412;5.436;2023-07-30T10:46:18;101054.72;;;20.79;63.60
74045;BME280;62389;51.412;5.436;2023-07-30T10:48:48;101064.78;;;20.96;63.93
74045;BME280;62389;51.412;5.436;2023-07-30T10:51:18;101074.19;;;21.00;59.26
74045;BME280;62389;51.412;5.436;2023-07-30T10:53:48;101061.19;;;20.86;59.35
74045;BME280;62389;51.412;5.436;2023-07-30T10:56:17;101063.91;;;20.75;61.33
74045;BME280;62389;51.412;5.436;2023-07-30T10:58:43;101061.69;;;20.59;60.11
74045;BME280;62389;51.412;5.436;2023-07-30T11:01:09;101056.38;;;20.48;61.21
74045;BME280;62389;51.412;5.436;2023-07-30T11:03:35;101056.66;;;20.33;61.50
74045;BME280;62389;51.412;5.436;2023-07-30T11:06:02;101055.09;;;20.20;62.67
74045;BME280;62389;51.412;5.436;2023-07-30T11:08:42;101062.69;;;20.24;61.36
74045;BME280;62389;51.412;5.436;2023-07-30T11:11:09;101060.34;;;20.42;59.28
74045;BME280;62389;51.412;5.436;2023-07-30T11:13:46;101056.47;;;20.57;61.06
74045;BME280;62389;51.412;5.436;2023-07-30T11:16:12;101057.31;;;20.58;59.71
74045;BME280;62389;51.412;5.436;2023-07-30T11:18:39;101060.09;;;20.56;61.13
74045;BME280;62389;51.412;5.436;2023-07-30T11:23:35;101071.72;;;20.44;62.28
74045;BME280;62389;51.412;5.436;2023-07-30T11:26:02;101069.66;;;20.48;61.86
74045;BME280;62389;51.412;5.436;2023-07-30T11:28:32;101069.50;;;20.60;62.49
74045;BME280;62389;51.412;5.436;2023-07-30T11:31:03;101078.41;;;20.71;60.49
74045;BME280;62389;51.412;5.436;2023-07-30T11:33:29;101075.53;;;20.74;61.90
74045;BME280;62389;51.412;5.436;2023-07-30T11:35:55;101081.75;;;20.84;59.58
74045;BME280;62389;51.412;5.436;2023-07-30T11:38:25;101067.28;;;20.77;59.08
74045;BME280;62389;51.412;5.436;2023-07-30T11:40:54;101079.53;;;20.57;57.81
74045;BME280;62389;51.412;5.436;2023-07-30T11:43:21;101078.94;;;20.42;59.63
74045;BME280;62389;51.412;5.436;2023-07-30T11:45:47;101085.75;;;20.12;64.38
74045;BME280;62389;51.412;5.436;2023-07-30T11:48:13;101091.72;;;19.94;67.09
74045;BME280;62389;51.412;5.436;2023-07-30T11:50:45;101094.81;;;19.76;67.19
74045;BME280;62389;51.412;5.436;2023-07-30T11:53:10;101089.88;;;19.72;68.66
74045;BME280;62389;51.412;5.436;2023-07-30T11:55:40;101107.03;;;19.90;69.34
74045;BME280;62389;51.412;5.436;2023-07-30T11:58:07;101092.28;;;20.20;70.22
74045;BME280;62389;51.412;5.436;2023-07-30T12:00:33;101098.16;;;20.46;68.40
74045;BME280;62389;51.412;5.436;2023-07-30T12:03:11;101092.22;;;20.64;65.09
74045;BME280;62389;51.412;5.436;2023-07-30T12:05:38;101087.75;;;20.65;64.58
74045;BME280;62389;51.412;5.436;2023-07-30T12:08:05;101089.09;;;20.59;62.83
74045;BME280;62389;51.412;5.436;2023-07-30T12:10:46;101093.47;;;20.49;62.88
74045;BME280;62389;51.412;5.436;2023-07-30T12:13:18;101091.06;;;20.35;62.18
74045;BME280;62389;51.412;5.436;2023-07-30T12:15:50;101106.78;;;20.15;62.19
74045;BME280;62389;51.412;5.436;2023-07-30T12:18:16;101111.97;;;19.95;59.44
74045;BME280;62389;51.412;5.436;2023-07-30T12:20:41;101120.53;;;19.76;62.03
74045;BME280;62389;51.412;5.436;2023-07-30T12:23:07;101123.16;;;19.64;62.38
74045;BME280;62389;51.412;5.436;2023-07-30T12:25:32;101118.28;;;19.47;66.94
74045;BME280;62389;51.412;5.436;2023-07-30T12:27:57;101120.53;;;19.29;66.54
74045;BME280;62389;51.412;5.436;2023-07-30T12:30:23;101130.03;;;19.21;66.26
74045;BME280;62389;51.412;5.436;2023-07-30T12:32:48;101132.63;;;19.09;66.82
74045;BME280;62389;51.412;5.436;2023-07-30T12:35:14;101123.22;;;19.05;65.41
74045;BME280;62389;51.412;5.436;2023-07-30T12:37:39;101136.50;;;19.17;65.91
74045;BME280;62389;51.412;5.436;2023-07-30T12:40:05;101124.06;;;19.52;68.14
74045;BME280;62389;51.412;5.436;2023-07-30T12:42:31;101117.91;;;19.98;67.84
74045;BME280;62389;51.412;5.436;2023-07-30T12:44:57;101117.38;;;20.27;65.35
74045;BME280;62389;51.412;5.436;2023-07-30T12:47:22;101116.28;;;20.52;62.72